createdAt,value
2017-05-01T00:00:05.140Z,0
2017-05-01T00:00:45.888Z,0
2017-05-01T00:01:26.640Z,0
2017-05-01T00:02:07.396Z,0
2017-05-01T00:02:48.150Z,0
2017-05-01T00:03:28.912Z,0
2017-05-01T00:04:09.696Z,0
2017-05-01T00:04:50.422Z,0
2017-05-01T00:05:31.178Z,0
2017-05-01T00:06:11.941Z,0
2017-05-01T00:06:52.722Z,0
2017-05-01T00:07:33.449Z,0
2017-05-01T00:08:14.200Z,0
2017-05-01T00:08:54.860Z,0
2017-05-01T00:09:35.434Z,0
2017-05-01T00:10:16.137Z,0
2017-05-01T00:10:56.915Z,0
2017-05-01T00:11:37.670Z,0
2017-05-01T00:12:18.269Z,0
2017-05-01T00:12:59.054Z,0
2017-05-01T00:13:39.746Z,0
2017-05-01T00:14:20.483Z,0
2017-05-01T00:15:01.240Z,0
2017-05-01T00:15:42.017Z,0
2017-05-01T00:16:22.754Z,0
2017-05-01T00:17:03.508Z,0
2017-05-01T00:17:44.265Z,0
2017-05-01T00:18:25.015Z,0
2017-05-01T00:19:05.775Z,0
2017-05-01T00:19:46.525Z,0
2017-05-01T00:20:27.281Z,0
2017-05-01T00:21:08.037Z,0
2017-05-01T00:21:48.793Z,0
2017-05-01T00:22:29.568Z,0
2017-05-01T00:23:10.301Z,0
2017-05-01T00:23:51.058Z,0
2017-05-01T00:24:31.622Z,0
2017-05-01T00:25:12.258Z,0
2017-05-01T00:25:53.030Z,0
2017-05-01T00:26:33.598Z,0
2017-05-01T00:27:14.220Z,0
2017-05-01T00:27:54.972Z,0
2017-05-01T00:28:35.533Z,0
2017-05-01T00:29:16.278Z,0
2017-05-01T00:29:57.032Z,0
2017-05-01T00:30:37.614Z,0
2017-05-01T00:31:18.345Z,0
2017-05-01T00:31:59.097Z,0
2017-05-01T00:32:39.673Z,0
2017-05-01T00:33:20.397Z,0
2017-05-01T00:34:01.176Z,0
2017-05-01T00:34:41.804Z,0
2017-05-01T00:35:22.535Z,0
2017-05-01T00:36:03.226Z,0
2017-05-01T00:36:43.996Z,0
2017-05-01T00:37:24.607Z,0
2017-05-01T00:38:05.389Z,0
2017-05-01T00:38:47.082Z,0
2017-05-01T00:39:27.850Z,0
2017-05-01T00:40:08.463Z,0
2017-05-01T00:40:49.413Z,0
2017-05-01T00:41:30.203Z,0
2017-05-01T00:42:10.939Z,0
2017-05-01T00:42:51.515Z,0
2017-05-01T00:43:33.060Z,0
2017-05-01T00:44:13.833Z,0
2017-05-01T00:44:54.577Z,0
2017-05-01T00:45:35.326Z,0
2017-05-01T00:46:16.077Z,0
2017-05-01T00:46:56.846Z,0
2017-05-01T00:47:37.589Z,0
2017-05-01T00:48:18.356Z,0
2017-05-01T00:48:59.107Z,0
2017-05-01T00:49:39.869Z,0
2017-05-01T00:50:20.611Z,0
2017-05-01T00:51:01.366Z,0
2017-05-01T00:51:42.147Z,0
2017-05-01T00:52:22.883Z,0
2017-05-01T00:53:03.530Z,0
2017-05-01T00:53:44.237Z,0
2017-05-01T00:54:25.074Z,0
2017-05-01T00:55:05.628Z,0
2017-05-01T00:55:46.325Z,0
2017-05-01T00:56:27.022Z,0
2017-05-01T00:57:07.664Z,0
2017-05-01T00:57:48.257Z,0
2017-05-01T00:58:28.979Z,0
2017-05-01T00:59:09.642Z,0
2017-05-01T00:59:50.280Z,0
2017-05-01T01:00:30.935Z,0
2017-05-01T01:01:11.586Z,0
2017-05-01T01:01:52.278Z,0
2017-05-01T01:02:32.905Z,0
2017-05-01T01:03:13.551Z,0
2017-05-01T01:03:54.194Z,0
2017-05-01T01:04:35.322Z,0
2017-05-01T01:05:16.041Z,0
2017-05-01T01:05:56.683Z,0
2017-05-01T01:06:37.336Z,0
2017-05-01T01:07:17.975Z,0
2017-05-01T01:07:58.632Z,0
2017-05-01T01:08:39.270Z,0
2017-05-01T01:09:19.959Z,0
2017-05-01T01:10:00.613Z,0
2017-05-01T01:10:41.238Z,0
2017-05-01T01:11:21.890Z,0
2017-05-01T01:12:02.551Z,0
2017-05-01T01:12:43.236Z,0
2017-05-01T01:13:23.893Z,0
2017-05-01T01:14:04.477Z,0
2017-05-01T01:14:45.188Z,0
2017-05-01T01:15:25.868Z,0
2017-05-01T01:16:06.428Z,0
2017-05-01T01:16:48.074Z,0
2017-05-01T01:17:28.728Z,0
2017-05-01T01:18:09.298Z,0
2017-05-01T01:18:51.008Z,0
2017-05-01T01:19:31.709Z,0
2017-05-01T01:20:12.259Z,0
2017-05-01T01:20:52.975Z,0
2017-05-01T01:21:33.696Z,0
2017-05-01T01:22:14.422Z,0
2017-05-01T01:22:54.992Z,0
2017-05-01T01:23:35.632Z,0
2017-05-01T01:24:16.282Z,0
2017-05-01T01:24:56.942Z,0
2017-05-01T01:25:37.531Z,0
2017-05-01T01:26:18.259Z,0
2017-05-01T01:26:58.940Z,0
2017-05-01T01:27:39.521Z,0
2017-05-01T01:28:20.160Z,0
2017-05-01T01:29:00.794Z,0
2017-05-01T01:29:41.447Z,0
2017-05-01T01:30:22.102Z,0
2017-05-01T01:31:03.779Z,0
2017-05-01T01:31:44.437Z,0
2017-05-01T01:32:25.084Z,0
2017-05-01T01:33:05.743Z,0
2017-05-01T01:33:46.384Z,0
2017-05-01T01:34:26.946Z,0
2017-05-01T01:35:07.551Z,0
2017-05-01T01:35:48.245Z,0
2017-05-01T01:36:28.896Z,0
2017-05-01T01:37:09.471Z,0
2017-05-01T01:37:50.086Z,0
2017-05-01T01:38:30.804Z,0
2017-05-01T01:39:11.411Z,0
2017-05-01T01:39:51.984Z,0
2017-05-01T01:40:32.616Z,0
2017-05-01T01:41:13.264Z,0
2017-05-01T01:41:53.918Z,0
2017-05-01T01:42:34.564Z,0
2017-05-01T01:43:16.242Z,0
2017-05-01T01:43:56.895Z,0
2017-05-01T01:44:38.471Z,0
2017-05-01T01:45:19.121Z,0
2017-05-01T01:45:59.774Z,0
2017-05-01T01:46:40.429Z,0
2017-05-01T01:47:22.106Z,0
2017-05-01T01:48:02.758Z,0
2017-05-01T01:48:43.412Z,0
2017-05-01T01:49:25.084Z,0
2017-05-01T01:50:05.744Z,0
2017-05-01T01:50:47.420Z,0
2017-05-01T01:51:28.070Z,0
2017-05-01T01:52:08.741Z,0
2017-05-01T01:52:49.379Z,0
2017-05-01T01:53:30.031Z,0
2017-05-01T01:54:10.613Z,0
2017-05-01T01:54:51.198Z,0
2017-05-01T01:55:31.788Z,0
2017-05-01T01:56:12.434Z,0
2017-05-01T01:56:53.004Z,0
2017-05-01T01:57:33.598Z,0
2017-05-01T01:58:14.188Z,0
2017-05-01T01:58:54.850Z,0
2017-05-01T01:59:35.433Z,0
2017-05-01T02:00:16.062Z,0
2017-05-01T02:00:56.709Z,0
2017-05-01T02:01:37.272Z,0
2017-05-01T02:02:17.884Z,0
2017-05-01T02:02:58.553Z,0
2017-05-01T02:03:39.151Z,0
2017-05-01T02:04:20.588Z,0
2017-05-01T02:05:01.229Z,0
2017-05-01T02:05:41.815Z,0
2017-05-01T02:06:22.490Z,0
2017-05-01T02:07:03.124Z,0
2017-05-01T02:07:43.736Z,0
2017-05-01T02:08:24.297Z,0
2017-05-01T02:09:04.913Z,0
2017-05-01T02:09:45.509Z,0
2017-05-01T02:10:26.071Z,0
2017-05-01T02:11:06.692Z,0
2017-05-01T02:11:47.341Z,0
2017-05-01T02:12:27.943Z,0
2017-05-01T02:13:08.549Z,0
2017-05-01T02:13:49.205Z,0
2017-05-01T02:14:29.782Z,0
2017-05-01T02:15:10.413Z,0
2017-05-01T02:15:51.055Z,0
2017-05-01T02:16:31.716Z,0
2017-05-01T02:17:12.360Z,0
2017-05-01T02:17:53.019Z,0
2017-05-01T02:18:33.684Z,0
2017-05-01T02:19:14.348Z,0
2017-05-01T02:19:54.975Z,0
2017-05-01T02:20:35.630Z,0
2017-05-01T02:21:16.283Z,0
2017-05-01T02:21:56.937Z,0
2017-05-01T02:22:37.597Z,0
2017-05-01T02:23:18.247Z,0
2017-05-01T02:23:58.918Z,0
2017-05-01T02:24:39.558Z,0
2017-05-01T02:25:21.224Z,0
2017-05-01T02:26:01.881Z,0
2017-05-01T02:26:42.522Z,0
2017-05-01T02:27:23.184Z,0
2017-05-01T02:28:03.848Z,0
2017-05-01T02:28:44.489Z,0
2017-05-01T02:29:25.136Z,0
2017-05-01T02:30:05.799Z,0
2017-05-01T02:30:47.495Z,0
2017-05-01T02:31:28.128Z,0
2017-05-01T02:32:08.773Z,0
2017-05-01T02:32:49.435Z,0
2017-05-01T02:33:30.101Z,0
2017-05-01T02:34:10.741Z,0
2017-05-01T02:34:51.301Z,0
2017-05-01T02:35:31.947Z,0
2017-05-01T02:36:12.608Z,0
2017-05-01T02:36:53.206Z,0
2017-05-01T02:37:33.897Z,0
2017-05-01T02:38:14.550Z,0
2017-05-01T02:38:55.165Z,0
2017-05-01T02:39:35.750Z,0
2017-05-01T02:40:16.409Z,0
2017-05-01T02:40:56.991Z,0
2017-05-01T02:41:37.620Z,0
2017-05-01T02:42:18.263Z,0
2017-05-01T02:42:58.836Z,0
2017-05-01T02:43:39.458Z,0
2017-05-01T02:44:20.116Z,0
2017-05-01T02:45:00.764Z,0
2017-05-01T02:45:41.423Z,0
2017-05-01T02:46:22.098Z,0
2017-05-01T02:47:02.733Z,0
2017-05-01T02:47:43.381Z,0
2017-05-01T02:48:24.035Z,0
2017-05-01T02:49:04.687Z,0
2017-05-01T02:49:45.264Z,0
2017-05-01T02:50:25.971Z,0
2017-05-01T02:51:06.562Z,0
2017-05-01T02:51:47.219Z,0
2017-05-01T02:52:27.772Z,0
2017-05-01T02:53:08.371Z,0
2017-05-01T02:53:49.074Z,0
2017-05-01T02:54:29.706Z,0
2017-05-01T02:55:10.315Z,0
2017-05-01T02:55:50.984Z,0
2017-05-01T02:56:31.576Z,0
2017-05-01T02:57:12.429Z,0
2017-05-01T02:57:52.996Z,0
2017-05-01T02:58:33.579Z,0
2017-05-01T02:59:14.190Z,0
2017-05-01T02:59:54.828Z,0
2017-05-01T03:00:35.478Z,0
2017-05-01T03:01:16.131Z,0
2017-05-01T03:01:56.783Z,0
2017-05-01T03:02:37.440Z,0
2017-05-01T03:03:18.090Z,0
2017-05-01T03:03:58.746Z,0
2017-05-01T03:04:39.314Z,0
2017-05-01T03:05:19.950Z,0
2017-05-01T03:06:00.544Z,0
2017-05-01T03:06:41.084Z,0
2017-05-01T03:07:21.705Z,0
2017-05-01T03:08:02.356Z,0
2017-05-01T03:08:42.942Z,0
2017-05-01T03:09:23.563Z,0
2017-05-01T03:10:04.231Z,0
2017-05-01T03:10:44.865Z,0
2017-05-01T03:11:25.517Z,0
2017-05-01T03:12:06.170Z,0
2017-05-01T03:12:46.823Z,0
2017-05-01T03:13:27.479Z,0
2017-05-01T03:14:08.129Z,0
2017-05-01T03:14:48.704Z,0
2017-05-01T03:15:29.309Z,0
2017-05-01T03:16:10.004Z,0
2017-05-01T03:16:50.656Z,0
2017-05-01T03:17:31.230Z,0
2017-05-01T03:18:11.915Z,0
2017-05-01T03:18:52.615Z,0
2017-05-01T03:19:33.250Z,0
2017-05-01T03:20:14.931Z,0
2017-05-01T03:20:55.573Z,0
2017-05-01T03:21:36.234Z,0
2017-05-01T03:22:16.885Z,0
2017-05-01T03:22:57.534Z,0
2017-05-01T03:23:38.188Z,0
2017-05-01T03:24:18.848Z,0
2017-05-01T03:24:59.493Z,4
2017-05-01T03:25:40.151Z,4
2017-05-01T03:26:20.805Z,4
2017-05-01T03:27:01.458Z,4
2017-05-01T03:27:42.108Z,0
2017-05-01T03:28:22.762Z,0
2017-05-01T03:29:03.409Z,0
2017-05-01T03:29:43.977Z,0
2017-05-01T03:30:24.559Z,4
2017-05-01T03:31:05.169Z,4
2017-05-01T03:31:45.826Z,4
2017-05-01T03:32:26.409Z,4
2017-05-01T03:33:07.070Z,4
2017-05-01T03:33:47.674Z,4
2017-05-01T03:34:28.336Z,4
2017-05-01T03:35:08.891Z,4
2017-05-01T03:35:50.512Z,8
2017-05-01T03:36:31.108Z,4
2017-05-01T03:37:11.758Z,4
2017-05-01T03:37:52.345Z,8
2017-05-01T03:38:37.519Z,8
2017-05-01T03:39:19.151Z,8
2017-05-01T03:39:59.802Z,8
2017-05-01T03:40:40.367Z,12
2017-05-01T03:41:23.052Z,8
2017-05-01T03:42:03.709Z,12
2017-05-01T03:42:44.274Z,12
2017-05-01T03:43:24.902Z,12
2017-05-01T03:44:05.564Z,16
2017-05-01T03:44:46.124Z,16
2017-05-01T03:45:27.477Z,16
2017-05-01T03:46:08.230Z,20
2017-05-01T03:46:48.985Z,20
2017-05-01T03:47:29.544Z,20
2017-05-01T03:48:10.226Z,24
2017-05-01T03:48:50.940Z,24
2017-05-01T03:49:31.697Z,28
2017-05-01T03:50:12.443Z,32
2017-05-01T03:50:53.108Z,32
2017-05-01T03:51:33.758Z,40
2017-05-01T03:52:14.350Z,40
2017-05-01T03:52:54.968Z,44
2017-05-01T03:53:35.618Z,48
2017-05-01T03:54:16.271Z,52
2017-05-01T03:54:56.842Z,56
2017-05-01T03:55:37.577Z,60
2017-05-01T03:56:18.150Z,60
2017-05-01T03:56:58.716Z,64
2017-05-01T03:57:39.432Z,68
2017-05-01T03:58:20.085Z,72
2017-05-01T03:59:00.652Z,76
2017-05-01T03:59:41.386Z,80
2017-05-01T04:00:22.138Z,84
2017-05-01T04:01:02.803Z,88
2017-05-01T04:01:43.379Z,92
2017-05-01T04:02:24.006Z,100
2017-05-01T04:03:04.658Z,108
2017-05-01T04:03:50.910Z,120
2017-05-01T04:04:31.592Z,132
2017-05-01T04:05:12.243Z,140
2017-05-01T04:05:52.899Z,156
2017-05-01T04:06:34.580Z,168
2017-05-01T04:07:15.227Z,180
2017-05-01T04:07:55.889Z,200
2017-05-01T04:08:36.541Z,220
2017-05-01T04:09:17.181Z,240
2017-05-01T04:09:57.786Z,260
2017-05-01T04:10:38.390Z,284
2017-05-01T04:11:19.037Z,300
2017-05-01T04:11:59.593Z,320
2017-05-01T04:12:40.247Z,340
2017-05-01T04:13:20.895Z,352
2017-05-01T04:14:01.466Z,368
2017-05-01T04:14:42.115Z,376
2017-05-01T04:15:23.572Z,388
2017-05-01T04:16:04.150Z,392
2017-05-01T04:16:44.736Z,400
2017-05-01T04:17:25.363Z,408
2017-05-01T04:18:05.980Z,420
2017-05-01T04:18:46.557Z,436
2017-05-01T04:19:27.173Z,448
2017-05-01T04:20:07.748Z,468
2017-05-01T04:20:48.383Z,496
2017-05-01T04:21:28.959Z,520
2017-05-01T04:22:09.565Z,544
2017-05-01T04:22:50.160Z,564
2017-05-01T04:23:30.789Z,588
2017-05-01T04:24:11.362Z,616
2017-05-01T04:24:51.973Z,640
2017-05-01T04:25:32.595Z,668
2017-05-01T04:26:13.276Z,700
2017-05-01T04:26:53.927Z,732
2017-05-01T04:27:34.579Z,764
2017-05-01T04:28:15.241Z,800
2017-05-01T04:28:55.864Z,832
2017-05-01T04:29:36.512Z,872
2017-05-01T04:30:17.117Z,912
2017-05-01T04:30:57.687Z,952
2017-05-01T04:31:38.312Z,988
2017-05-01T04:32:18.992Z,1028
2017-05-01T04:32:59.561Z,1068
2017-05-01T04:33:40.175Z,1108
2017-05-01T04:34:20.851Z,1140
2017-05-01T04:35:01.501Z,1176
2017-05-01T04:35:42.153Z,1204
2017-05-01T04:36:22.748Z,1228
2017-05-01T04:37:03.344Z,1240
2017-05-01T04:37:43.989Z,1248
2017-05-01T04:38:24.643Z,1264
2017-05-01T04:39:05.316Z,1284
2017-05-01T04:39:45.879Z,1312
2017-05-01T04:40:26.513Z,1340
2017-05-01T04:41:07.156Z,1368
2017-05-01T04:41:47.721Z,1392
2017-05-01T04:42:28.368Z,1420
2017-05-01T04:43:09.008Z,1440
2017-05-01T04:43:49.560Z,1456
2017-05-01T04:44:30.216Z,1472
2017-05-01T04:45:10.866Z,1512
2017-05-01T04:45:51.433Z,1596
2017-05-01T04:46:32.040Z,1696
2017-05-01T04:47:12.717Z,1756
2017-05-01T04:47:53.376Z,1744
2017-05-01T04:48:33.941Z,1716
2017-05-01T04:49:14.565Z,1692
2017-05-01T04:49:55.224Z,1688
2017-05-01T04:50:35.878Z,1692
2017-05-01T04:51:16.445Z,1696
2017-05-01T04:51:57.081Z,1692
2017-05-01T04:52:37.737Z,1676
2017-05-01T04:53:18.394Z,1644
2017-05-01T04:53:59.053Z,1604
2017-05-01T04:54:39.695Z,1592
2017-05-01T04:55:20.351Z,1584
2017-05-01T04:56:00.908Z,1596
2017-05-01T04:56:41.505Z,1620
2017-05-01T04:57:22.096Z,1656
2017-05-01T04:58:02.755Z,1704
2017-05-01T04:58:43.325Z,1752
2017-05-01T04:59:23.898Z,1800
2017-05-01T05:00:04.503Z,1848
2017-05-01T05:00:45.078Z,1884
2017-05-01T05:01:25.720Z,1920
2017-05-01T05:02:06.381Z,1948
2017-05-01T05:02:46.938Z,1972
2017-05-01T05:03:27.568Z,1996
2017-05-01T05:04:08.222Z,2012
2017-05-01T05:04:48.789Z,2040
2017-05-01T05:05:29.417Z,2076
2017-05-01T05:06:10.077Z,2120
2017-05-01T05:06:50.641Z,2180
2017-05-01T05:07:31.238Z,2248
2017-05-01T05:08:11.824Z,2328
2017-05-01T05:08:53.411Z,2420
2017-05-01T05:09:33.998Z,2500
2017-05-01T05:10:14.703Z,2588
2017-05-01T05:10:55.367Z,2672
2017-05-01T05:11:36.011Z,2764
2017-05-01T05:12:16.677Z,2852
2017-05-01T05:12:57.319Z,2928
2017-05-01T05:13:37.971Z,2996
2017-05-01T05:14:18.623Z,3052
2017-05-01T05:14:59.278Z,3084
2017-05-01T05:15:39.927Z,3108
2017-05-01T05:16:20.582Z,3124
2017-05-01T05:17:01.232Z,3144
2017-05-01T05:17:41.886Z,3164
2017-05-01T05:18:22.550Z,3180
2017-05-01T05:19:03.195Z,3192
2017-05-01T05:19:43.846Z,3204
2017-05-01T05:20:24.500Z,3208
2017-05-01T05:21:05.153Z,3200
2017-05-01T05:21:45.813Z,3192
2017-05-01T05:22:26.462Z,3180
2017-05-01T05:23:07.112Z,3188
2017-05-01T05:23:47.768Z,3184
2017-05-01T05:24:28.421Z,3180
2017-05-01T05:25:10.101Z,3156
2017-05-01T05:25:50.751Z,3136
2017-05-01T05:26:31.406Z,3112
2017-05-01T05:27:12.073Z,3076
2017-05-01T05:27:52.712Z,3028
2017-05-01T05:28:33.367Z,2972
2017-05-01T05:29:14.016Z,2912
2017-05-01T05:29:54.566Z,2848
2017-05-01T05:30:35.172Z,2796
2017-05-01T05:31:15.769Z,2756
2017-05-01T05:31:56.426Z,2720
2017-05-01T05:32:36.987Z,2696
2017-05-01T05:33:17.682Z,2672
2017-05-01T05:33:58.377Z,2640
2017-05-01T05:34:39.036Z,2608
2017-05-01T05:35:20.491Z,2572
2017-05-01T05:36:01.070Z,2536
2017-05-01T05:36:41.637Z,2504
2017-05-01T05:37:22.262Z,2484
2017-05-01T05:38:02.930Z,2472
2017-05-01T05:38:43.509Z,2468
2017-05-01T05:39:24.187Z,2464
2017-05-01T05:40:04.897Z,2452
2017-05-01T05:40:45.667Z,2444
2017-05-01T05:41:26.294Z,2452
2017-05-01T05:42:06.949Z,2480
2017-05-01T05:42:48.626Z,2516
2017-05-01T05:43:29.277Z,2548
2017-05-01T05:44:09.928Z,2604
2017-05-01T05:44:50.509Z,2640
2017-05-01T05:45:31.226Z,2672
2017-05-01T05:46:11.901Z,2712
2017-05-01T05:46:52.547Z,2760
2017-05-01T05:47:33.123Z,2808
2017-05-01T05:48:13.802Z,2848
2017-05-01T05:48:54.417Z,2880
2017-05-01T05:49:35.157Z,2900
2017-05-01T05:50:15.730Z,2920
2017-05-01T05:50:56.442Z,2936
2017-05-01T05:51:37.147Z,2952
2017-05-01T05:52:17.764Z,2972
2017-05-01T05:52:58.326Z,3004
2017-05-01T05:53:39.059Z,3056
2017-05-01T05:54:19.727Z,3128
2017-05-01T05:55:00.383Z,3216
2017-05-01T05:55:41.042Z,3308
2017-05-01T05:56:21.691Z,3396
2017-05-01T05:57:02.339Z,3476
2017-05-01T05:57:42.986Z,3548
2017-05-01T05:58:23.643Z,3608
2017-05-01T05:59:04.293Z,3660
2017-05-01T05:59:44.847Z,3704
2017-05-01T06:00:25.507Z,3752
2017-05-01T06:01:06.150Z,3808
2017-05-01T06:01:46.727Z,3864
2017-05-01T06:02:27.291Z,3908
2017-05-01T06:03:07.981Z,3940
2017-05-01T06:03:48.659Z,3948
2017-05-01T06:04:29.249Z,3916
2017-05-01T06:05:09.860Z,3860
2017-05-01T06:05:50.514Z,3776
2017-05-01T06:06:31.078Z,3680
2017-05-01T06:07:11.743Z,3592
2017-05-01T06:07:52.376Z,3520
2017-05-01T06:08:33.026Z,3468
2017-05-01T06:09:13.602Z,3432
2017-05-01T06:09:54.281Z,3424
2017-05-01T06:10:34.883Z,3440
2017-05-01T06:11:15.537Z,3468
2017-05-01T06:11:56.201Z,3504
2017-05-01T06:12:36.845Z,3564
2017-05-01T06:13:17.507Z,3616
2017-05-01T06:13:58.136Z,3680
2017-05-01T06:14:38.795Z,3748
2017-05-01T06:15:19.450Z,3800
2017-05-01T06:16:00.119Z,3848
2017-05-01T06:16:40.783Z,3888
2017-05-01T06:17:21.424Z,3964
2017-05-01T06:18:02.074Z,4016
2017-05-01T06:18:43.738Z,4064
2017-05-01T06:19:24.403Z,4096
2017-05-01T06:20:05.056Z,4104
2017-05-01T06:20:45.628Z,4104
2017-05-01T06:21:27.357Z,4124
2017-05-01T06:22:08.244Z,4156
2017-05-01T06:22:48.811Z,4216
2017-05-01T06:23:29.538Z,4312
2017-05-01T06:24:10.115Z,4436
2017-05-01T06:24:50.684Z,4584
2017-05-01T06:25:31.313Z,4736
2017-05-01T06:26:11.956Z,4848
2017-05-01T06:26:52.615Z,4908
2017-05-01T06:27:33.270Z,4900
2017-05-01T06:28:13.921Z,4832
2017-05-01T06:28:54.572Z,4740
2017-05-01T06:29:35.223Z,4656
2017-05-01T06:30:15.882Z,4584
2017-05-01T06:30:56.534Z,4496
2017-05-01T06:31:37.211Z,4404
2017-05-01T06:32:17.838Z,4352
2017-05-01T06:32:58.489Z,4328
2017-05-01T06:33:39.144Z,4312
2017-05-01T06:34:19.793Z,4300
2017-05-01T06:35:00.381Z,4280
2017-05-01T06:35:41.149Z,4276
2017-05-01T06:36:21.723Z,4276
2017-05-01T06:37:02.306Z,4284
2017-05-01T06:37:42.873Z,4280
2017-05-01T06:38:23.508Z,4268
2017-05-01T06:39:04.166Z,4260
2017-05-01T06:39:44.744Z,4264
2017-05-01T06:40:25.371Z,4288
2017-05-01T06:41:06.019Z,4328
2017-05-01T06:41:46.619Z,4348
2017-05-01T06:42:27.295Z,4372
2017-05-01T06:43:07.985Z,4388
2017-05-01T06:43:48.628Z,4412
2017-05-01T06:44:29.182Z,4440
2017-05-01T06:45:09.798Z,4484
2017-05-01T06:45:50.395Z,4528
2017-05-01T06:46:30.964Z,4572
2017-05-01T06:47:11.588Z,4612
2017-05-01T06:47:52.251Z,4632
2017-05-01T06:48:32.901Z,4652
2017-05-01T06:49:13.547Z,4664
2017-05-01T06:49:54.207Z,4688
2017-05-01T06:50:34.789Z,4716
2017-05-01T06:51:15.412Z,4756
2017-05-01T06:51:56.060Z,4800
2017-05-01T06:52:36.636Z,4868
2017-05-01T06:53:17.794Z,4960
2017-05-01T06:53:58.356Z,5052
2017-05-01T06:54:38.916Z,5136
2017-05-01T06:55:19.598Z,5196
2017-05-01T06:56:00.237Z,5228
2017-05-01T06:56:40.905Z,5240
2017-05-01T06:57:21.548Z,5268
2017-05-01T06:58:02.202Z,5296
2017-05-01T06:58:42.849Z,5336
2017-05-01T06:59:23.553Z,5396
2017-05-01T07:00:04.208Z,5456
2017-05-01T07:00:44.856Z,5508
2017-05-01T07:01:25.515Z,5568
2017-05-01T07:02:06.077Z,5624
2017-05-01T07:02:46.717Z,5680
2017-05-01T07:03:27.370Z,5740
2017-05-01T07:04:10.082Z,5832
2017-05-01T07:04:50.722Z,5916
2017-05-01T07:05:32.401Z,6020
2017-05-01T07:06:13.061Z,6116
2017-05-01T07:06:53.704Z,6236
2017-05-01T07:07:34.362Z,6332
2017-05-01T07:08:15.012Z,6432
2017-05-01T07:08:55.774Z,6512
2017-05-01T07:09:38.472Z,6584
2017-05-01T07:10:19.127Z,6640
2017-05-01T07:10:59.786Z,6696
2017-05-01T07:11:40.438Z,6748
2017-05-01T07:12:21.090Z,6796
2017-05-01T07:13:02.755Z,6872
2017-05-01T07:13:43.417Z,6940
2017-05-01T07:14:25.100Z,7020
2017-05-01T07:15:06.771Z,7112
2017-05-01T07:15:47.417Z,7196
2017-05-01T07:16:28.172Z,7268
2017-05-01T07:17:08.832Z,7344
2017-05-01T07:17:49.478Z,7408
2017-05-01T07:18:30.140Z,7480
2017-05-01T07:19:10.792Z,7528
2017-05-01T07:19:51.551Z,7592
2017-05-01T07:20:32.117Z,7684
2017-05-01T07:21:12.752Z,7772
2017-05-01T07:21:53.398Z,7816
2017-05-01T07:22:34.044Z,7844
2017-05-01T07:23:15.736Z,7876
2017-05-01T07:23:56.390Z,7940
2017-05-01T07:24:37.042Z,8008
2017-05-01T07:25:17.614Z,8064
2017-05-01T07:25:58.293Z,8108
2017-05-01T07:26:38.891Z,8164
2017-05-01T07:27:19.456Z,8228
2017-05-01T07:28:01.125Z,8276
2017-05-01T07:28:41.775Z,8320
2017-05-01T07:29:22.429Z,8336
2017-05-01T07:30:03.002Z,8332
2017-05-01T07:30:43.577Z,8320
2017-05-01T07:31:24.185Z,8300
2017-05-01T07:32:04.843Z,8272
2017-05-01T07:32:45.466Z,8220
2017-05-01T07:33:26.102Z,8168
2017-05-01T07:34:06.687Z,8112
2017-05-01T07:34:47.353Z,8056
2017-05-01T07:35:27.998Z,7988
2017-05-01T07:36:08.652Z,7920
2017-05-01T07:36:49.305Z,7832
2017-05-01T07:37:29.952Z,7728
2017-05-01T07:38:10.611Z,7600
2017-05-01T07:38:51.264Z,7460
2017-05-01T07:39:31.921Z,7304
2017-05-01T07:40:12.490Z,7132
2017-05-01T07:40:53.129Z,6948
2017-05-01T07:41:33.770Z,6764
2017-05-01T07:42:14.351Z,6580
2017-05-01T07:42:54.981Z,6400
2017-05-01T07:43:35.742Z,6224
2017-05-01T07:44:16.316Z,6068
2017-05-01T07:44:56.941Z,5916
2017-05-01T07:45:37.590Z,5768
2017-05-01T07:46:18.160Z,5636
2017-05-01T07:46:58.746Z,5520
2017-05-01T07:47:39.346Z,5432
2017-05-01T07:48:20.001Z,5368
2017-05-01T07:49:00.569Z,5308
2017-05-01T07:49:41.153Z,5256
2017-05-01T07:50:21.806Z,5204
2017-05-01T07:51:02.401Z,5168
2017-05-01T07:51:43.059Z,5144
2017-05-01T07:52:23.628Z,5140
2017-05-01T07:53:04.213Z,5164
2017-05-01T07:53:44.798Z,5200
2017-05-01T07:54:25.465Z,5252
2017-05-01T07:55:06.032Z,5296
2017-05-01T07:55:46.629Z,5364
2017-05-01T07:56:27.324Z,5432
2017-05-01T07:57:07.966Z,5488
2017-05-01T07:57:48.537Z,5540
2017-05-01T07:58:29.132Z,5600
2017-05-01T07:59:09.732Z,5656
2017-05-01T07:59:50.486Z,5720
2017-05-01T08:00:31.054Z,5780
2017-05-01T08:01:11.643Z,5868
2017-05-01T08:01:53.260Z,5948
2017-05-01T08:02:33.836Z,6020
2017-05-01T08:03:14.551Z,6096
2017-05-01T08:03:56.144Z,6164
2017-05-01T08:04:36.795Z,6228
2017-05-01T08:05:17.372Z,6292
2017-05-01T08:05:58.045Z,6372
2017-05-01T08:06:38.733Z,6464
2017-05-01T08:07:19.360Z,6564
2017-05-01T08:08:00.012Z,6668
2017-05-01T08:08:40.656Z,6768
2017-05-01T08:09:23.283Z,6852
2017-05-01T08:10:03.905Z,6904
2017-05-01T08:10:45.622Z,6940
2017-05-01T08:11:26.298Z,6968
2017-05-01T08:12:06.898Z,6988
2017-05-01T08:12:47.552Z,7000
2017-05-01T08:13:28.311Z,7016
2017-05-01T08:14:08.933Z,7032
2017-05-01T08:14:49.614Z,7048
2017-05-01T08:15:30.262Z,7072
2017-05-01T08:16:10.953Z,7096
2017-05-01T08:16:51.574Z,7116
2017-05-01T08:17:32.257Z,7128
2017-05-01T08:18:13.948Z,7148
2017-05-01T08:18:54.616Z,7156
2017-05-01T08:19:35.272Z,7152
2017-05-01T08:20:15.863Z,7140
2017-05-01T08:20:56.533Z,7144
2017-05-01T08:21:37.117Z,7168
2017-05-01T08:22:17.764Z,7220
2017-05-01T08:22:58.349Z,7292
2017-05-01T08:23:39.044Z,7388
2017-05-01T08:24:19.729Z,7496
2017-05-01T08:25:00.376Z,7616
2017-05-01T08:25:41.053Z,7764
2017-05-01T08:26:21.687Z,7920
2017-05-01T08:27:02.338Z,8100
2017-05-01T08:27:42.989Z,8292
2017-05-01T08:28:23.643Z,8480
2017-05-01T08:29:04.292Z,8668
2017-05-01T08:29:44.987Z,8828
2017-05-01T08:30:25.577Z,9004
2017-05-01T08:31:06.253Z,9152
2017-05-01T08:31:46.942Z,9288
2017-05-01T08:32:27.534Z,9420
2017-05-01T08:33:08.237Z,9548
2017-05-01T08:33:48.871Z,9672
2017-05-01T08:34:29.439Z,9780
2017-05-01T08:35:11.089Z,9852
2017-05-01T08:35:51.792Z,9968
2017-05-01T08:36:32.396Z,10028
2017-05-01T08:37:15.001Z,10032
2017-05-01T08:37:55.650Z,10004
2017-05-01T08:38:36.301Z,9936
2017-05-01T08:39:16.979Z,9920
2017-05-01T08:39:57.634Z,9924
2017-05-01T08:40:39.308Z,9916
2017-05-01T08:41:20.051Z,9920
2017-05-01T08:42:00.695Z,9932
2017-05-01T08:42:41.342Z,9948
2017-05-01T08:43:22.000Z,9968
2017-05-01T08:44:02.662Z,10000
2017-05-01T08:44:43.323Z,10028
2017-05-01T08:45:23.961Z,10060
2017-05-01T08:46:04.608Z,10124
2017-05-01T08:46:45.261Z,10188
2017-05-01T08:47:26.021Z,10236
2017-05-01T08:48:06.667Z,10256
2017-05-01T08:48:47.337Z,10240
2017-05-01T08:49:27.984Z,10124
2017-05-01T08:50:08.635Z,9920
2017-05-01T08:50:49.283Z,9652
2017-05-01T08:51:29.942Z,9332
2017-05-01T08:52:11.660Z,8956
2017-05-01T08:52:52.226Z,8500
2017-05-01T08:53:32.818Z,8056
2017-05-01T08:54:13.393Z,7684
2017-05-01T08:54:54.990Z,7392
2017-05-01T08:55:35.661Z,7180
2017-05-01T08:56:16.311Z,7128
2017-05-01T08:56:56.965Z,7112
2017-05-01T08:57:37.657Z,7124
2017-05-01T08:58:18.307Z,7136
2017-05-01T08:58:59.082Z,7096
2017-05-01T08:59:39.727Z,7016
2017-05-01T09:00:20.416Z,6800
2017-05-01T09:01:01.024Z,6476
2017-05-01T09:01:41.713Z,6096
2017-05-01T09:02:22.334Z,5704
2017-05-01T09:03:02.986Z,5368
2017-05-01T09:03:43.635Z,5116
2017-05-01T09:04:24.364Z,4924
2017-05-01T09:05:04.961Z,4800
2017-05-01T09:05:45.607Z,4736
2017-05-01T09:06:26.399Z,4724
2017-05-01T09:07:07.154Z,4688
2017-05-01T09:07:48.829Z,4628
2017-05-01T09:08:29.615Z,4552
2017-05-01T09:09:10.369Z,4480
2017-05-01T09:09:52.130Z,4400
2017-05-01T09:10:32.844Z,4292
2017-05-01T09:11:13.455Z,4200
2017-05-01T09:11:54.120Z,4108
2017-05-01T09:12:34.744Z,4036
2017-05-01T09:13:15.506Z,3996
2017-05-01T09:13:56.159Z,3964
2017-05-01T09:14:36.812Z,3948
2017-05-01T09:15:17.541Z,3952
2017-05-01T09:15:58.309Z,3976
2017-05-01T09:16:38.923Z,4024
2017-05-01T09:17:19.511Z,4088
2017-05-01T09:18:00.306Z,4120
2017-05-01T09:18:40.872Z,4160
2017-05-01T09:19:21.589Z,4208
2017-05-01T09:20:02.174Z,4268
2017-05-01T09:20:42.832Z,4332
2017-05-01T09:21:23.511Z,4364
2017-05-01T09:22:05.154Z,4376
2017-05-01T09:22:45.812Z,4392
2017-05-01T09:23:26.471Z,4396
2017-05-01T09:24:07.121Z,4412
2017-05-01T09:24:47.771Z,4444
2017-05-01T09:25:28.425Z,4460
2017-05-01T09:26:09.150Z,4484